Time;durP1;ratioP1;P1;durP2;ratioP2;P2;SDS_P1;SDS_P2;PMS_P1;PMS_P2;Temp;Humidity;BMP_temperature;BMP_pressure;BME280_temperature;BME280_humidity;BME280_pressure;Samples;Min_cycle;Max_cycle;Signal;HPM_P1;HPM_P2
2023/06/16 00:01:42;;;;;;;4.93;2.28;;;20.70;56.30;;;;;;5007594;28;20677;-58
2023/06/16 00:04:09;;;;;;;4.93;2.45;;;20.70;54.40;;;;;;5019791;28;20625;-59
2023/06/16 00:06:37;;;;;;;2.38;2.08;;;20.60;80.40;;;;;;5006224;28;20204;-58
2023/06/16 00:09:04;;;;;;;2.75;2.47;;;20.70;55.90;;;;;;5006923;28;20224;-58
2023/06/16 00:11:33;;;;;;;3.15;2.25;;;20.60;56.10;;;;;;5021994;28;20607;-59
2023/06/16 00:14:00;;;;;;;3.25;2.42;;;20.60;56.60;;;;;;4999111;28;20547;-58
2023/06/16 00:16:30;;;;;;;3.35;2.47;;;20.70;55.60;;;;;;5005234;28;20201;-62
2023/06/16 00:18:57;;;;;;;6.38;2.30;;;20.70;57.80;;;;;;5003154;28;20217;-60
2023/06/16 00:21:35;;;;;;;2.90;2.25;;;20.60;57.40;;;;;;5005634;28;20212;-60
2023/06/16 00:24:03;;;;;;;2.55;2.20;;;20.60;55.90;;;;;;5001151;28;20260;-61
2023/06/16 00:26:30;;;;;;;4.20;2.75;;;20.60;57.80;;;;;;5021503;28;20189;-62
2023/06/16 00:28:57;;;;;;;3.67;2.53;;;20.50;57.00;;;;;;5006323;28;20185;-61
2023/06/16 00:31:25;;;;;;;3.45;2.47;;;20.40;57.20;;;;;;5021673;28;20193;-63
2023/06/16 00:33:53;;;;;;;2.60;2.38;;;20.40;57.50;;;;;;5005815;28;21009;-61
2023/06/16 00:36:20;;;;;;;2.78;2.38;;;20.40;58.90;;;;;;5004926;28;20189;-60
2023/06/16 00:38:47;;;;;;;3.13;2.10;;;20.30;58.20;;;;;;5006107;28;20227;-60
2023/06/16 00:41:14;;;;;;;3.08;2.20;;;20.30;57.60;;;;;;5001325;28;20205;-60
2023/06/16 00:43:42;;;;;;;7.18;2.28;;;20.40;57.90;;;;;;5021340;28;20633;-60
2023/06/16 00:46:16;;;;;;;3.47;2.30;;;20.30;59.80;;;;;;5005560;28;20201;-61
2023/06/16 00:48:43;;;;;;;3.10;2.40;;;20.40;59.10;;;;;;5001545;28;20200;-60
2023/06/16 00:51:14;;;;;;;6.53;2.47;;;20.30;58.30;;;;;;5018946;28;20598;-60
2023/06/16 00:53:41;;;;;;;3.72;2.28;;;20.30;59.00;;;;;;5007263;28;20558;-60
2023/06/16 00:56:08;;;;;;;4.15;2.65;;;20.30;60.70;;;;;;5036038;28;20208;-60
2023/06/16 00:58:37;;;;;;;4.03;2.45;;;20.20;59.40;;;;;;5005402;28;20197;-59
2023/06/16 01:01:05;;;;;;;3.63;2.60;;;20.20;59.60;;;;;;4992519;28;20252;-59
2023/06/16 01:03:32;;;;;;;6.63;2.20;;;20.20;59.10;;;;;;5035678;23;20236;-69
2023/06/16 01:06:06;;;;;;;3.30;2.15;;;20.20;59.30;;;;;;5039787;28;20633;-69
2023/06/16 01:08:56;;;;;;;3.40;2.45;;;20.10;60.70;;;;;;5017699;28;20192;-65
2023/06/16 01:11:41;;;;;;;3.67;3.13;;;19.90;59.50;;;;;;5018472;28;20200;-66
2023/06/16 01:14:15;;;;;;;4.38;2.50;;;20.00;60.50;;;;;;5025932;28;20188;-66
2023/06/16 01:16:44;;;;;;;4.57;2.00;;;20.00;61.90;;;;;;5023346;28;20295;-67
2023/06/16 01:19:22;;;;;;;3.33;2.50;;;19.90;60.70;;;;;;5036221;28;20199;-67
2023/06/16 01:22:14;;;;;;;2.42;2.22;;;19.90;61.00;;;;;;5025453;28;20211;-67
2023/06/16 01:24:43;;;;;;;6.18;2.10;;;19.80;61.50;;;;;;5018581;28;20621;-67
2023/06/16 01:27:13;;;;;;;2.38;2.17;;;19.70;60.00;;;;;;5007141;28;20223;-67
2023/06/16 01:29:41;;;;;;;3.35;2.83;;;19.60;62.00;;;;;;5030072;28;20192;-67
2023/06/16 01:32:10;;;;;;;3.35;2.40;;;19.70;61.50;;;;;;5035714;28;20689;-68
2023/06/16 01:34:38;;;;;;;2.75;2.30;;;19.50;62.10;;;;;;5025448;28;20207;-66
2023/06/16 01:37:07;;;;;;;4.15;2.47;;;19.40;61.40;;;;;;5022180;28;20207;-66
2023/06/16 01:39:35;;;;;;;5.25;2.38;;;19.10;64.10;;;;;;5019799;28;20184;-65
2023/06/16 01:42:02;;;;;;;5.35;2.50;;;18.70;62.90;;;;;;5024138;28;20702;-66
2023/06/16 01:44:32;;;;;;;4.20;2.78;;;18.40;65.40;;;;;;5022788;28;20724;-65
2023/06/16 01:46:59;;;;;;;2.60;2.10;;;18.20;65.90;;;;;;5021347;28;20695;-66
2023/06/16 01:49:27;;;;;;;6.13;2.50;;;18.10;66.00;;;;;;5021188;28;20228;-66
2023/06/16 01:51:55;;;;;;;3.53;2.45;;;18.00;67.20;;;;;;5024386;28;20208;-66
2023/06/16 01:54:22;;;;;;;4.30;2.30;;;18.10;67.60;;;;;;5023948;28;20687;-67
2023/06/16 01:56:50;;;;;;;3.55;2.40;;;18.10;68.60;;;;;;5018990;28;20196;-66
2023/06/16 01:59:17;;;;;;;3.80;2.28;;;18.00;68.60;;;;;;5031383;28;20242;-65
2023/06/16 02:01:55;;;;;;;6.70;4.53;;;17.90;70.00;;;;;;5035313;28;20204;-65
2023/06/16 02:04:25;;;;;;;7.60;4.78;;;18.00;70.30;;;;;;4993490;28;20216;-66
2023/06/16 02:07:18;;;;;;;6.80;4.60;;;18.10;69.50;;;;;;5002344;28;20857;-65
2023/06/16 02:09:46;;;;;;;9.38;6.13;;;17.80;70.80;;;;;;5001228;28;20196;-65
2023/06/16 02:12:13;;;;;;;6.45;3.92;;;17.70;73.20;;;;;;5005101;28;20196;-66
2023/06/16 02:14:40;;;;;;;4.50;2.83;;;17.90;71.80;;;;;;5020746;28;20296;-67
2023/06/16 02:17:12;;;;;;;3.87;2.70;;;17.90;72.30;;;;;;5020382;28;20291;-67
2023/06/16 02:19:40;;;;;;;3.83;2.53;;;17.70;72.80;;;;;;5004924;28;20672;-67
2023/06/16 02:22:07;;;;;;;4.70;2.30;;;17.60;74.10;;;;;;5009593;28;20715;-67
2023/06/16 02:24:35;;;;;;;14.50;9.57;;;17.60;72.90;;;;;;5023238;28;20209;-65
2023/06/16 02:27:05;;;;;;;19.10;11.70;;;17.60;74.50;;;;;;5007109;28;20292;-66
2023/06/16 02:29:32;;;;;;;23.23;13.95;;;17.80;94.50;;;;;;5006247;28;20589;-65
2023/06/16 02:31:59;;;;;;;13.52;8.77;;;17.80;74.80;;;;;;5005229;28;20287;-66
2023/06/16 02:34:26;;;;;;;7.53;4.43;;;17.80;74.30;;;;;;5007020;28;20197;-59
2023/06/16 02:36:53;;;;;;;8.33;5.83;;;17.60;73.30;;;;;;5001384;28;20236;-59
2023/06/16 02:39:21;;;;;;;18.92;12.10;;;16.90;75.30;;;;;;5020635;28;20220;-65
2023/06/16 02:41:49;;;;;;;6.10;4.20;;;17.10;77.00;;;;;;4992350;28;20711;-65
2023/06/16 02:44:18;;;;;;;5.80;3.67;;;16.90;76.20;;;;;;5024478;28;20204;-66
2023/06/16 02:46:45;;;;;;;5.20;3.30;;;16.80;77.40;;;;;;5007559;28;20683;-66
2023/06/16 02:49:12;;;;;;;5.33;2.77;;;16.80;78.00;;;;;;5024406;28;20193;-66
2023/06/16 02:51:40;;;;;;;2.93;2.10;;;16.70;79.40;;;;;;5025336;28;20204;-66
2023/06/16 02:54:07;;;;;;;3.60;2.60;;;17.00;80.00;;;;;;5023305;28;20212;-66
2023/06/16 02:56:34;;;;;;;2.97;2.50;;;17.10;79.10;;;;;;5006168;28;20199;-66
2023/06/16 02:59:01;;;;;;;3.97;2.57;;;16.80;79.90;;;;;;5001619;28;20197;-66
2023/06/16 03:01:30;;;;;;;3.77;2.43;;;16.70;81.60;;;;;;5007878;28;20237;-66
2023/06/16 03:04:10;;;;;;;7.37;3.63;;;16.60;81.70;;;;;;5009828;28;20224;-66
2023/06/16 03:06:57;;;;;;;4.53;2.50;;;16.40;80.70;;;;;;5006163;28;20200;-66
2023/06/16 03:09:32;;;;;;;4.67;2.93;;;16.40;82.40;;;;;;5017594;28;20197;-65
2023/06/16 03:12:00;;;;;;;2.90;2.60;;;16.60;82.50;;;;;;5021522;28;20634;-65
2023/06/16 03:14:30;;;;;;;2.73;2.27;;;16.90;82.60;;;;;;5007415;28;20196;-65
2023/06/16 03:17:06;;;;;;;3.03;2.37;;;17.00;84.30;;;;;;5007156;28;20635;-66
2023/06/16 03:19:34;;;;;;;2.47;2.20;;;17.10;83.50;;;;;;5019900;28;20189;-67
2023/06/16 03:22:01;;;;;;;3.90;2.30;;;17.20;83.10;;;;;;5020305;28;20606;-67
2023/06/16 03:24:38;;;;;;;4.47;3.27;;;17.20;85.30;;;;;;5005825;28;20192;-65
2023/06/16 03:27:06;;;;;;;2.93;2.30;;;17.20;83.80;;;;;;5006504;28;20214;-65
2023/06/16 03:29:43;;;;;;;6.07;3.43;;;17.30;86.10;;;;;;5020799;28;20549;-67
2023/06/16 03:32:10;;;;;;;3.73;2.67;;;17.30;85.30;;;;;;5004258;28;20193;-67
2023/06/16 03:34:38;;;;;;;3.03;2.60;;;17.40;84.10;;;;;;5006353;28;20208;-66
2023/06/16 03:37:05;;;;;;;3.83;2.73;;;17.10;85.40;;;;;;5023609;28;20209;-66
2023/06/16 03:39:37;;;;;;;5.20;2.50;;;17.20;85.70;;;;;;5005508;28;20212;-65
2023/06/16 03:42:04;;;;;;;3.57;2.50;;;16.80;85.50;;;;;;5006913;28;20286;-66
2023/06/16 03:44:32;;;;;;;3.27;2.50;;;16.50;86.00;;;;;;5001753;28;20226;-66
2023/06/16 03:46:59;;;;;;;3.53;2.37;;;16.70;90.50;;;;;;5002928;28;20221;-66
2023/06/16 03:49:28;;;;;;;3.57;2.83;;;16.60;87.60;;;;;;4999840;28;20661;-66
2023/06/16 03:51:57;;;;;;;6.70;2.60;;;16.80;88.00;;;;;;5017858;28;20208;-67
2023/06/16 03:54:26;;;;;;;4.37;2.87;;;17.00;87.70;;;;;;5017377;28;20202;-67
2023/06/16 03:56:53;;;;;;;3.78;2.60;;;17.30;87.80;;;;;;5019952;28;20205;-66
2023/06/16 03:59:22;;;;;;;2.47;2.22;;;17.80;86.70;;;;;;5004846;28;20210;-67
2023/06/16 04:01:50;;;;;;;6.55;2.53;;;18.40;85.70;;;;;;5021467;28;20644;-66
2023/06/16 04:04:19;;;;;;;5.07;2.85;;;18.70;85.70;;;;;;5006280;28;20221;-67
2023/06/16 04:06:48;;;;;;;4.18;2.90;;;18.90;85.10;;;;;;5021042;28;20201;-67
2023/06/16 04:09:15;;;;;;;4.82;2.20;;;19.30;84.80;;;;;;5007009;28;20742;-67
2023/06/16 04:11:42;;;;;;;2.75;2.40;;;19.80;83.50;;;;;;5003431;28;20208;-67
2023/06/16 04:14:11;;;;;;;2.60;2.13;;;20.20;84.70;;;;;;5018678;28;20263;-67
2023/06/16 04:16:40;;;;;;;7.00;2.67;;;20.60;81.30;;;;;;4998932;28;20665;-68
2023/06/16 04:19:08;;;;;;;5.70;2.88;;;20.60;81.70;;;;;;4991469;28;20730;-66
2023/06/16 04:21:36;;;;;;;3.20;2.70;;;20.90;82.20;;;;;;5020178;28;20240;-66
2023/06/16 04:24:04;;;;;;;5.78;2.92;;;21.10;80.90;;;;;;5010177;28;20194;-66
2023/06/16 04:26:32;;;;;;;3.10;2.47;;;20.80;82.50;;;;;;5007809;28;20648;-66
2023/06/16 04:29:03;;;;;;;4.60;2.80;;;21.00;80.20;;;;;;5019291;28;20686;-65
2023/06/16 04:31:35;;;;;;;3.83;2.55;;;21.30;80.00;;;;;;5001495;28;20672;-66
2023/06/16 04:34:03;;;;;;;6.65;3.33;;;21.70;80.30;;;;;;5015774;28;20295;-66
2023/06/16 04:36:34;;;;;;;4.75;2.58;;;22.40;77.00;;;;;;5005785;28;20208;-66
2023/06/16 04:39:09;;;;;;;3.38;2.63;;;23.00;74.00;;;;;;5000848;28;20205;-66
2023/06/16 04:41:36;;;;;;;3.63;2.85;;;22.50;74.00;;;;;;5006614;28;20213;-66
2023/06/16 04:44:04;;;;;;;3.47;2.55;;;22.60;76.50;;;;;;5023592;28;20204;-66
2023/06/16 04:46:31;;;;;;;4.38;2.63;;;22.90;74.80;;;;;;5005800;28;20684;-66
2023/06/16 04:49:01;;;;;;;5.45;2.90;;;23.10;71.90;;;;;;5001330;28;20232;-67
2023/06/16 04:51:28;;;;;;;3.95;3.22;;;23.40;73.10;;;;;;5002303;28;20214;-65
2023/06/16 04:53:55;;;;;;;4.95;3.30;;;23.70;71.80;;;;;;5001298;28;20266;-65
2023/06/16 04:56:22;;;;;;;5.18;2.80;;;24.00;70.40;;;;;;5002577;28;20207;-66
2023/06/16 04:58:49;;;;;;;3.22;2.78;;;23.90;71.70;;;;;;5019019;28;20199;-66
2023/06/16 05:01:16;;;;;;;4.35;2.90;;;23.70;70.90;;;;;;5002897;28;20217;-65
2023/06/16 05:03:43;;;;;;;4.93;3.00;;;23.90;69.60;;;;;;4999012;28;20232;-65
2023/06/16 05:06:10;;;;;;;6.97;2.60;;;24.00;71.10;;;;;;5005208;28;20196;-65
2023/06/16 05:08:38;;;;;;;4.13;2.95;;;24.20;68.30;;;;;;5003286;28;20205;-65
2023/06/16 05:11:05;;;;;;;5.70;3.35;;;24.70;69.40;;;;;;5000293;28;20683;-66
2023/06/16 05:13:33;;;;;;;7.03;2.85;;;25.20;66.50;;;;;;5003389;28;20399;-68
2023/06/16 05:16:00;;;;;;;3.20;2.53;;;25.40;66.00;;;;;;4999823;28;20200;-67
2023/06/16 05:18:27;;;;;;;3.50;2.83;;;25.90;64.60;;;;;;5015389;28;20209;-67
2023/06/16 05:20:54;;;;;;;5.32;3.25;;;23.90;60.10;;;;;;5017507;28;20205;-66
2023/06/16 05:23:21;;;;;;;5.03;3.30;;;23.30;63.60;;;;;;5021386;28;20188;-65
2023/06/16 05:25:48;;;;;;;2.85;2.55;;;23.40;66.30;;;;;;5011847;28;20676;-67
2023/06/16 05:28:15;;;;;;;4.22;2.70;;;25.00;67.70;;;;;;5001245;28;20189;-67
2023/06/16 05:30:42;;;;;;;4.22;2.63;;;26.30;64.70;;;;;;4997638;28;20632;-67
2023/06/16 05:33:09;;;;;;;4.63;2.80;;;27.20;61.20;;;;;;5000165;28;20284;-69
2023/06/16 05:35:37;;;;;;;4.85;2.75;;;27.90;61.50;;;;;;5022131;28;20240;-69
2023/06/16 05:38:05;;;;;;;3.42;2.83;;;28.20;60.10;;;;;;4985490;28;20607;-69
2023/06/16 05:40:32;;;;;;;4.43;2.42;;;28.60;59.00;;;;;;4998094;28;20866;-65
2023/06/16 05:42:59;;;;;;;5.78;2.85;;;29.40;58.00;;;;;;5016297;28;20230;-66
2023/06/16 05:45:26;;;;;;;4.28;2.55;;;29.30;55.40;;;;;;5012633;28;20201;-66
2023/06/16 05:47:53;;;;;;;3.97;2.80;;;29.20;56.00;;;;;;5002605;28;20197;-66
2023/06/16 05:50:21;;;;;;;4.78;3.13;;;29.00;55.40;;;;;;5021472;28;20529;-65
2023/06/16 05:52:48;;;;;;;3.30;2.45;;;29.00;55.70;;;;;;5007693;28;20288;-64
2023/06/16 05:55:15;;;;;;;3.70;2.78;;;28.70;55.40;;;;;;5002944;28;20672;-65
2023/06/16 05:57:49;;;;;;;4.65;2.90;;;29.80;55.20;;;;;;4999346;28;20198;-68
2023/06/16 06:00:17;;;;;;;3.40;2.17;;;30.60;53.50;;;;;;5006795;28;20201;-69
2023/06/16 06:02:53;;;;;;;3.42;2.72;;;31.10;53.40;;;;;;5017204;28;20254;-70
2023/06/16 06:05:27;;;;;;;4.15;3.10;;;30.50;51.80;;;;;;5006826;28;20181;-70
2023/06/16 06:07:54;;;;;;;3.22;2.65;;;31.20;52.10;;;;;;4982874;28;20235;-68
2023/06/16 06:10:22;;;;;;;6.40;2.65;;;30.40;53.30;;;;;;5016118;28;20316;-68
2023/06/16 06:12:54;;;;;;;4.97;3.40;;;30.20;51.10;;;;;;4999553;28;20193;-69
2023/06/16 06:15:21;;;;;;;4.25;2.70;;;30.60;51.20;;;;;;5017518;28;20815;-68
2023/06/16 06:17:53;;;;;;;5.03;3.25;;;31.30;52.60;;;;;;5007610;28;20263;-69
2023/06/16 06:20:21;;;;;;;3.08;2.65;;;31.90;49.60;;;;;;4999695;28;20295;-69
2023/06/16 06:22:48;;;;;;;4.78;2.60;;;32.40;48.90;;;;;;5011316;28;20204;-69
2023/06/16 06:25:16;;;;;;;3.42;2.50;;;33.50;47.40;;;;;;5015469;28;20201;-69
2023/06/16 06:27:43;;;;;;;3.72;2.67;;;33.50;46.00;;;;;;5006751;28;20204;-69
2023/06/16 06:30:11;;;;;;;5.10;2.95;;;32.50;47.90;;;;;;5008664;28;20498;-70
2023/06/16 06:32:38;;;;;;;3.20;2.53;;;34.10;46.70;;;;;;5022562;28;20215;-69
2023/06/16 06:35:06;;;;;;;3.42;2.45;;;35.00;44.60;;;;;;5005708;28;20239;-69
2023/06/16 06:37:33;;;;;;;6.25;2.60;;;35.10;44.30;;;;;;5020240;28;20230;-69
2023/06/16 06:40:01;;;;;;;3.15;2.40;;;35.20;42.40;;;;;;4999523;28;20204;-69
2023/06/16 06:42:29;;;;;;;4.90;3.08;;;35.60;42.60;;;;;;5003745;28;20216;-70
2023/06/16 06:44:57;;;;;;;4.50;3.17;;;35.80;43.70;;;;;;5005923;28;20204;-70
2023/06/16 06:47:24;;;;;;;2.65;2.38;;;33.70;38.10;;;;;;5008267;28;20589;-69
2023/06/16 06:49:56;;;;;;;5.55;3.08;;;31.60;42.10;;;;;;5018728;28;20207;-69
2023/06/16 06:52:23;;;;;;;4.18;3.03;;;34.00;44.40;;;;;;4998600;28;20193;-69
2023/06/16 06:54:50;;;;;;;4.03;2.85;;;34.00;42.70;;;;;;5008446;28;20197;-69
2023/06/16 06:57:17;;;;;;;8.23;3.05;;;33.80;42.40;;;;;;5002022;28;20683;-69
2023/06/16 06:59:44;;;;;;;4.47;2.53;;;31.60;40.50;;;;;;5019259;28;20203;-68
2023/06/16 07:02:11;;;;;;;2.92;2.45;;;32.90;44.20;;;;;;5004490;28;20252;-69
2023/06/16 07:04:39;;;;;;;5.07;2.75;;;34.40;42.20;;;;;;4998352;28;20273;-69
2023/06/16 07:07:08;;;;;;;3.63;2.53;;;35.70;40.50;;;;;;5003892;28;20216;-70
2023/06/16 07:09:35;;;;;;;3.15;2.35;;;35.90;42.30;;;;;;5001550;28;20200;-70
2023/06/16 07:12:02;;;;;;;5.80;2.50;;;36.80;39.50;;;;;;4997628;28;20212;-70
2023/06/16 07:14:29;;;;;;;2.78;2.15;;;37.60;37.50;;;;;;5008616;28;20199;-70
2023/06/16 07:16:57;;;;;;;4.00;2.35;;;37.40;39.60;;;;;;5007341;28;20208;-70
2023/06/16 07:19:26;;;;;;;3.72;2.60;;;35.80;32.40;;;;;;5018188;28;20192;-70
2023/06/16 07:21:53;;;;;;;3.13;2.80;;;35.80;37.70;;;;;;5002156;28;20209;-70
2023/06/16 07:24:21;;;;;;;3.95;2.50;;;37.40;37.70;;;;;;4999405;28;20200;-69
2023/06/16 07:26:48;;;;;;;3.30;2.35;;;38.30;34.90;;;;;;4999215;28;20711;-70
2023/06/16 07:29:15;;;;;;;3.95;3.17;;;38.80;35.10;;;;;;5005996;28;20238;-70
2023/06/16 07:31:42;;;;;;;4.15;2.60;;;38.00;33.70;;;;;;5017075;28;20200;-70
2023/06/16 07:34:09;;;;;;;5.07;2.55;;;38.80;36.40;;;;;;5008970;28;20572;-70
2023/06/16 07:36:38;;;;;;;3.50;2.40;;;35.80;31.80;;;;;;5018750;28;20211;-70
2023/06/16 07:39:05;;;;;;;6.30;3.10;;;36.40;33.80;;;;;;5003141;28;20192;-70
2023/06/16 07:41:32;;;;;;;3.35;2.80;;;35.40;34.50;;;;;;5017413;28;20209;-70
2023/06/16 07:43:59;;;;;;;3.10;2.35;;;34.40;29.30;;;;;;4999644;28;20196;-70
2023/06/16 07:46:26;;;;;;;3.83;2.60;;;35.40;32.70;;;;;;4999764;28;20670;-70
2023/06/16 07:48:54;;;;;;;3.28;2.33;;;37.10;32.50;;;;;;5014369;28;20191;-71
2023/06/16 07:51:21;;;;;;;3.22;2.50;;;38.30;32.50;;;;;;4999617;28;20577;-70
2023/06/16 07:53:49;;;;;;;2.90;2.50;;;38.50;32.00;;;;;;5003763;28;20534;-69
2023/06/16 07:56:16;;;;;;;3.70;2.65;;;37.20;30.00;;;;;;4996542;28;20193;-69
2023/06/16 07:58:43;;;;;;;4.30;2.38;;;38.40;30.70;;;;;;5008250;28;20193;-69
2023/06/16 08:01:11;;;;;;;4.05;3.05;;;39.20;31.10;;;;;;5002026;28;20559;-70
2023/06/16 08:03:38;;;;;;;3.42;2.33;;;39.00;28.60;;;;;;5006532;28;20239;-69
2023/06/16 08:06:06;;;;;;;4.00;2.25;;;38.90;29.60;;;;;;5002823;28;20200;-69
2023/06/16 08:08:33;;;;;;;2.30;2.10;;;39.60;29.50;;;;;;5000360;28;20603;-70
2023/06/16 08:11:00;;;;;;;4.55;2.35;;;39.90;28.60;;;;;;5014437;28;20605;-69
2023/06/16 08:13:27;;;;;;;2.92;2.10;;;37.40;26.80;;;;;;5001764;28;20200;-69
2023/06/16 08:15:54;;;;;;;2.50;2.20;;;38.40;28.30;;;;;;4999205;28;20515;-70
2023/06/16 08:18:21;;;;;;;3.47;3.17;;;38.70;26.30;;;;;;4997046;28;20223;-70
2023/06/16 08:20:48;;;;;;;2.53;2.20;;;40.00;26.70;;;;;;5020204;28;20205;-70
2023/06/16 08:23:15;;;;;;;2.78;2.53;;;40.70;26.40;;;;;;5004628;28;20201;-70
2023/06/16 08:25:42;;;;;;;2.30;2.00;;;40.90;25.40;;;;;;5002171;28;20656;-71
2023/06/16 08:28:09;;;;;;;2.55;2.17;;;39.80;24.10;;;;;;5005107;28;20189;-70
2023/06/16 08:30:37;;;;;;;2.97;2.35;;;40.00;23.40;;;;;;5000749;28;20207;-71
2023/06/16 08:33:05;;;;;;;2.78;2.20;;;39.20;24.00;;;;;;4999762;28;20593;-70
2023/06/16 08:35:32;;;;;;;3.72;2.45;;;40.50;24.70;;;;;;5003176;28;20199;-71
2023/06/16 08:37:59;;;;;;;2.42;2.03;;;40.60;42.10;;;;;;5000010;28;20274;-70
2023/06/16 08:40:26;;;;;;;3.33;2.63;;;40.50;41.30;;;;;;5003326;28;20631;-69
2023/06/16 08:42:55;;;;;;;3.60;2.65;;;40.70;22.90;;;;;;4991196;28;20271;-69
2023/06/16 08:45:23;;;;;;;4.55;2.47;;;37.80;20.70;;;;;;5018213;28;20184;-70
2023/06/16 08:47:50;;;;;;;4.65;2.28;;;37.40;21.90;;;;;;5000726;28;20193;-69
2023/06/16 08:50:22;;;;;;;2.30;2.05;;;38.50;22.30;;;;;;5002899;28;20676;-70
2023/06/16 08:52:52;;;;;;;6.10;2.40;;;39.10;22.00;;;;;;4999580;28;20196;-70
2023/06/16 08:55:22;;;;;;;2.13;1.92;;;37.70;21.40;;;;;;5001869;28;20696;-69
2023/06/16 08:57:54;;;;;;;3.05;2.50;;;38.60;21.80;;;;;;5000341;28;20193;-70
2023/06/16 09:00:22;;;;;;;2.88;2.25;;;39.90;21.20;;;;;;4994983;28;20197;-69
2023/06/16 09:02:55;;;;;;;2.67;2.25;;;38.70;20.70;;;;;;5014875;28;20286;-71
2023/06/16 09:05:26;;;;;;;3.00;2.20;;;38.80;20.60;;;;;;5002257;28;20613;-70
2023/06/16 09:07:54;;;;;;;2.55;2.35;;;37.40;19.20;;;;;;4996265;28;20196;-70
2023/06/16 09:10:21;;;;;;;2.90;2.60;;;37.60;20.50;;;;;;5000031;28;20196;-70
2023/06/16 09:12:52;;;;;;;2.72;2.20;;;37.60;18.50;;;;;;5006112;28;20199;-70
2023/06/16 09:15:21;;;;;;;2.95;2.42;;;37.70;19.40;;;;;;5006993;28;20184;-70
2023/06/16 09:17:49;;;;;;;2.63;2.35;;;38.40;19.60;;;;;;5005972;28;20287;-70
2023/06/16 09:20:18;;;;;;;3.97;2.45;;;37.70;16.80;;;;;;5020065;28;20204;-70
2023/06/16 09:22:59;;;;;;;2.85;2.38;;;38.10;18.70;;;;;;4997091;28;20221;-70
2023/06/16 09:25:30;;;;;;;2.83;2.15;;;37.80;18.50;;;;;;4999734;28;20591;-69
2023/06/16 09:27:59;;;;;;;2.85;2.60;;;39.00;17.80;;;;;;4983030;28;20204;-70
2023/06/16 09:30:30;;;;;;;3.08;2.80;;;38.30;16.80;;;;;;5000911;28;20188;-70
2023/06/16 09:32:58;;;;;;;3.22;2.20;;;37.50;15.60;;;;;;4997791;28;20703;-70
2023/06/16 09:35:30;;;;;;;2.33;2.13;;;38.50;16.50;;;;;;4999601;28;20200;-70
2023/06/16 09:38:00;;;;;;;1.98;1.85;;;39.20;15.10;;;;;;5000400;28;20207;-70
2023/06/16 09:40:28;;;;;;;2.38;2.13;;;36.70;13.60;;;;;;4999472;28;20254;-70
2023/06/16 09:42:58;;;;;;;3.13;2.15;;;34.80;16.70;;;;;;4995578;28;20212;-69
2023/06/16 09:45:30;;;;;;;4.88;2.40;;;34.10;16.10;;;;;;5001186;28;20256;-70
2023/06/16 09:48:02;;;;;;;5.10;2.10;;;35.50;27.20;;;;;;5000873;28;20193;-70
2023/06/16 09:50:30;;;;;;;2.70;2.22;;;36.30;15.20;;;;;;5004377;28;20676;-68
2023/06/16 09:52:58;;;;;;;3.65;2.10;;;36.70;15.70;;;;;;5003272;28;20196;-71
2023/06/16 09:55:28;;;;;;;4.47;2.05;;;37.20;15.70;;;;;;5019849;28;20606;-70
2023/06/16 09:57:55;;;;;;;3.22;2.35;;;37.40;13.50;;;;;;4992776;28;20208;-71
2023/06/16 10:00:24;;;;;;;2.85;2.13;;;37.70;14.30;;;;;;5005083;28;20196;-70
2023/06/16 10:02:55;;;;;;;4.05;2.22;;;36.40;13.40;;;;;;4996240;28;20235;-70
2023/06/16 10:05:25;;;;;;;3.78;2.15;;;36.00;12.80;;;;;;5000244;28;20199;-71
2023/06/16 10:07:55;;;;;;;2.45;2.25;;;36.40;12.40;;;;;;4997194;28;20600;-70
2023/06/16 10:10:25;;;;;;;5.32;2.22;;;35.10;12.20;;;;;;4998253;28;20204;-70
2023/06/16 10:12:54;;;;;;;6.18;2.45;;;33.20;13.00;;;;;;4995598;28;20189;-68
2023/06/16 10:15:31;;;;;;;2.58;2.25;;;33.10;14.80;;;;;;5000687;28;20206;-70
2023/06/16 10:18:04;;;;;;;2.28;2.08;;;34.60;13.20;;;;;;5000209;28;20552;-70
2023/06/16 10:20:37;;;;;;;2.47;2.08;;;34.20;13.20;;;;;;5013286;28;20300;-69
2023/06/16 10:23:04;;;;;;;4.55;2.33;;;36.10;12.60;;;;;;4994566;28;20212;-70
2023/06/16 10:25:33;;;;;;;3.58;2.28;;;36.30;12.00;;;;;;5000324;28;20196;-69
2023/06/16 10:28:06;;;;;;;6.38;2.15;;;37.70;12.30;;;;;;5003246;28;20188;-70
2023/06/16 10:30:35;;;;;;;2.88;2.40;;;37.10;10.90;;;;;;5001411;28;20436;-69
2023/06/16 10:33:20;;;;;;;2.80;2.22;;;37.40;10.50;;;;;;5004830;28;20390;-69
2023/06/16 10:35:59;;;;;;;3.00;2.33;;;38.20;11.00;;;;;;5003734;28;20656;-70
2023/06/16 10:38:57;;;;;;;2.78;2.17;;;37.70;10.00;;;;;;5003516;28;20823;-70
2023/06/16 10:41:26;;;;;;;2.22;2.03;;;37.10;9.00;;;;;;5008082;28;20276;-70
2023/06/16 10:43:53;;;;;;;2.13;1.92;;;37.80;10.60;;;;;;5003890;28;20208;-63
2023/06/16 10:46:21;;;;;;;4.70;2.22;;;37.80;10.00;;;;;;5000621;28;20224;-63
2023/06/16 10:49:11;;;;;;;2.35;1.92;;;38.10;9.90;;;;;;5003036;28;20275;-63
2023/06/16 10:51:43;;;;;;;2.55;2.30;;;38.10;8.60;;;;;;5004542;28;20698;-70
2023/06/16 10:54:10;;;;;;;3.03;2.35;;;37.30;8.80;;;;;;5017588;28;20670;-70
2023/06/16 10:57:02;;;;;;;4.30;2.22;;;36.90;9.10;;;;;;5001066;28;20200;-70
2023/06/16 10:59:51;;;;;;;2.58;2.00;;;35.70;9.60;;;;;;5003881;28;20274;-70
2023/06/16 11:02:26;;;;;;;6.75;2.47;;;36.80;9.20;;;;;;5014581;28;20247;-71
2023/06/16 11:05:22;;;;;;;3.10;2.10;;;37.40;8.90;;;;;;5012737;28;20238;-71
2023/06/16 11:08:04;;;;;;;3.22;2.40;;;36.30;8.00;;;;;;5001860;28;20200;-70
2023/06/16 11:10:49;;;;;;;2.92;2.40;;;36.90;24.50;;;;;;5003251;28;20653;-70
2023/06/16 11:13:29;;;;;;;2.15;1.95;;;37.10;8.30;;;;;;4995037;28;20185;-70
2023/06/16 11:15:57;;;;;;;4.70;2.15;;;36.10;7.60;;;;;;5004142;28;20188;-70
2023/06/16 11:18:26;;;;;;;3.97;2.25;;;35.40;8.70;;;;;;5005325;28;20240;-71
2023/06/16 11:20:57;;;;;;;4.90;2.20;;;35.60;7.80;;;;;;5001874;28;20690;-71
2023/06/16 11:23:25;;;;;;;3.63;2.45;;;35.90;9.50;;;;;;5004062;28;20216;-70
2023/06/16 11:25:53;;;;;;;4.20;2.42;;;36.00;8.20;;;;;;5001196;28;20728;-71
2023/06/16 11:28:21;;;;;;;4.75;2.60;;;35.20;7.50;;;;;;4988136;28;20203;-70
2023/06/16 11:30:48;;;;;;;2.38;2.17;;;35.00;8.60;;;;;;5004023;28;20180;-71
2023/06/16 11:33:16;;;;;;;2.50;2.30;;;35.30;8.60;;;;;;5000879;28;20217;-70
2023/06/16 11:35:43;;;;;;;2.65;2.35;;;33.00;7.60;;;;;;5004099;28;20205;-70
2023/06/16 11:38:10;;;;;;;5.45;2.53;;;32.00;10.80;;;;;;5003777;28;20239;-69
2023/06/16 11:40:37;;;;;;;3.10;2.80;;;32.30;12.40;;;;;;4998550;28;20208;-70
2023/06/16 11:43:07;;;;;;;3.03;2.28;;;32.60;10.30;;;;;;5003738;28;20447;-70
2023/06/16 11:45:38;;;;;;;3.35;2.53;;;33.70;9.90;;;;;;5002840;28;20189;-71
2023/06/16 11:48:08;;;;;;;3.80;2.60;;;33.60;8.80;;;;;;5004642;28;20630;-70
2023/06/16 11:50:37;;;;;;;2.50;2.30;;;34.30;9.70;;;;;;5010647;28;20725;-70
2023/06/16 11:53:04;;;;;;;2.40;2.20;;;33.70;8.70;;;;;;5000163;28;20203;-70
2023/06/16 11:55:31;;;;;;;3.40;2.35;;;33.40;9.80;;;;;;5004322;28;20205;-70
2023/06/16 11:57:59;;;;;;;7.22;2.60;;;34.10;8.80;;;;;;4998055;28;20238;-70
2023/06/16 12:00:27;;;;;;;3.10;2.58;;;34.90;8.00;;;;;;5002114;28;20720;-71
2023/06/16 12:02:55;;;;;;;2.78;2.28;;;34.60;8.70;;;;;;5013233;28;20763;-70
2023/06/16 12:05:27;;;;;;;3.63;2.70;;;34.80;9.70;;;;;;5000909;28;20196;-70
2023/06/16 12:07:54;;;;;;;3.13;2.30;;;35.00;9.40;;;;;;4997409;28;20193;-70
2023/06/16 12:10:25;;;;;;;2.55;2.35;;;35.50;9.40;;;;;;5001431;28;20205;-69
2023/06/16 12:12:52;;;;;;;2.55;2.30;;;34.30;8.20;;;;;;5004061;28;20204;-62
2023/06/16 12:15:21;;;;;;;3.40;2.22;;;32.90;9.20;;;;;;5015595;28;20193;-63
2023/06/16 12:17:48;;;;;;;6.10;3.00;;;32.30;10.60;;;;;;4997803;28;20216;-63
2023/06/16 12:20:18;;;;;;;2.75;2.47;;;32.60;9.80;;;;;;5001571;28;20192;-70
2023/06/16 12:22:46;;;;;;;2.92;2.40;;;32.00;10.20;;;;;;5002559;28;20274;-70
2023/06/16 12:25:15;;;;;;;3.75;2.83;;;32.10;9.70;;;;;;5016566;28;21758;-70
2023/06/16 12:27:43;;;;;;;4.20;2.50;;;31.50;10.80;;;;;;4996457;28;20212;-70
2023/06/16 12:30:14;;;;;;;4.28;2.80;;;31.30;10.70;;;;;;5001605;28;20201;-70
2023/06/16 12:32:42;;;;;;;2.63;2.13;;;30.50;11.60;;;;;;5003056;28;20216;-70
2023/06/16 12:35:10;;;;;;;2.95;2.55;;;30.20;11.90;;;;;;4996188;28;20951;-70
2023/06/16 12:37:40;;;;;;;3.35;2.42;;;31.00;12.50;;;;;;4991791;28;20212;-69
2023/06/16 12:40:08;;;;;;;3.38;2.53;;;30.70;11.20;;;;;;4998550;28;20279;-70
2023/06/16 12:42:35;;;;;;;3.05;2.75;;;30.70;12.00;;;;;;5002556;28;20188;-70
2023/06/16 12:45:04;;;;;;;2.65;2.10;;;30.60;11.40;;;;;;5001259;28;20205;-69
2023/06/16 12:47:33;;;;;;;5.43;2.90;;;30.10;12.90;;;;;;5000459;28;20204;-70
2023/06/16 12:50:03;;;;;;;3.38;2.67;;;30.20;12.40;;;;;;4997339;28;21124;-71
2023/06/16 12:52:30;;;;;;;3.53;2.65;;;30.10;28.50;;;;;;4997733;28;21029;-69
2023/06/16 12:54:59;;;;;;;3.55;2.85;;;29.60;11.80;;;;;;4995582;28;20251;-70
2023/06/16 12:57:27;;;;;;;4.30;3.47;;;29.20;12.80;;;;;;4992523;28;20276;-69
2023/06/16 12:59:54;;;;;;;4.38;3.30;;;29.00;13.60;;;;;;5001191;28;20583;-69